sensor_id;sensor_type;location;lat;lon;timestamp;P1;durP1;ratioP1;P2;durP2;ratioP2
23086;SDS011;11712;51.134;4.156;2022-09-30T00:00:19;0.50;;;0.50;;
23086;SDS011;11712;51.134;4.156;2022-09-30T00:02:45;0.50;;;0.50;;
23086;SDS011;11712;51.134;4.156;2022-09-30T00:05:10;0.50;;;0.50;;
23086;SDS011;11712;51.134;4.156;2022-09-30T00:07:36;0.50;;;0.50;;
23086;SDS011;11712;51.134;4.156;2022-09-30T00:10:02;0.50;;;0.50;;
23086;SDS011;11712;51.134;4.156;2022-09-30T00:12:28;0.50;;;0.50;;
23086;SDS011;11712;51.134;4.156;2022-09-30T00:16:52;0.50;;;0.50;;
23086;SDS011;11712;51.134;4.156;2022-09-30T00:19:18;0.50;;;0.50;;
23086;SDS011;11712;51.134;4.156;2022-09-30T00:21:43;0.50;;;0.50;;
23086;SDS011;11712;51.134;4.156;2022-09-30T00:24:09;0.40;;;0.40;;
23086;SDS011;11712;51.134;4.156;2022-09-30T00:26:35;0.50;;;0.50;;
23086;SDS011;11712;51.134;4.156;2022-09-30T00:29:01;0.50;;;0.50;;
23086;SDS011;11712;51.134;4.156;2022-09-30T00:33:06;0.50;;;0.50;;
23086;SDS011;11712;51.134;4.156;2022-09-30T00:35:32;0.50;;;0.50;;
23086;SDS011;11712;51.134;4.156;2022-09-30T00:37:57;0.40;;;0.40;;
23086;SDS011;11712;51.134;4.156;2022-09-30T00:40:24;0.50;;;0.50;;
23086;SDS011;11712;51.134;4.156;2022-09-30T00:42:50;0.50;;;0.50;;
23086;SDS011;11712;51.134;4.156;2022-09-30T00:45:16;0.50;;;0.50;;
23086;SDS011;11712;51.134;4.156;2022-09-30T00:47:47;0.50;;;0.50;;
23086;SDS011;11712;51.134;4.156;2022-09-30T00:53:39;0.40;;;0.40;;
23086;SDS011;11712;51.134;4.156;2022-09-30T00:56:01;0.50;;;0.50;;
23086;SDS011;11712;51.134;4.156;2022-09-30T00:58:33;0.50;;;0.50;;
23086;SDS011;11712;51.134;4.156;2022-09-30T01:01:05;0.50;;;0.50;;
23086;SDS011;11712;51.134;4.156;2022-09-30T01:03:32;0.50;;;0.50;;
23086;SDS011;11712;51.134;4.156;2022-09-30T01:06:02;0.40;;;0.40;;
23086;SDS011;11712;51.134;4.156;2022-09-30T01:08:29;0.50;;;0.50;;
23086;SDS011;11712;51.134;4.156;2022-09-30T01:10:59;0.50;;;0.50;;
23086;SDS011;11712;51.134;4.156;2022-09-30T01:13:25;0.50;;;0.50;;
23086;SDS011;11712;51.134;4.156;2022-09-30T01:46:59;0.50;;;0.50;;
23086;SDS011;11712;51.134;4.156;2022-09-30T01:52:03;0.50;;;0.50;;
23086;SDS011;11712;51.134;4.156;2022-09-30T02:00:06;0.50;;;0.50;;
23086;SDS011;11712;51.134;4.156;2022-09-30T02:02:35;0.40;;;0.40;;
23086;SDS011;11712;51.134;4.156;2022-09-30T02:08:12;0.50;;;0.50;;
23086;SDS011;11712;51.134;4.156;2022-09-30T02:10:56;0.50;;;0.50;;
23086;SDS011;11712;51.134;4.156;2022-09-30T02:16:00;0.50;;;0.50;;
23086;SDS011;11712;51.134;4.156;2022-09-30T02:21:19;0.50;;;0.50;;
23086;SDS011;11712;51.134;4.156;2022-09-30T02:23:52;0.50;;;0.50;;
23086;SDS011;11712;51.134;4.156;2022-09-30T02:29:05;0.50;;;0.50;;
23086;SDS011;11712;51.134;4.156;2022-09-30T02:33:52;0.50;;;0.50;;
23086;SDS011;11712;51.134;4.156;2022-09-30T02:38:53;0.50;;;0.50;;
23086;SDS011;11712;51.134;4.156;2022-09-30T02:41:31;0.40;;;0.40;;
23086;SDS011;11712;51.134;4.156;2022-09-30T02:44:04;0.50;;;0.50;;
23086;SDS011;11712;51.134;4.156;2022-09-30T02:46:37;0.50;;;0.50;;
23086;SDS011;11712;51.134;4.156;2022-09-30T02:49:19;0.40;;;0.40;;
23086;SDS011;11712;51.134;4.156;2022-09-30T02:52:11;0.50;;;0.50;;
23086;SDS011;11712;51.134;4.156;2022-09-30T02:57:43;0.50;;;0.50;;
23086;SDS011;11712;51.134;4.156;2022-09-30T03:00:18;0.45;;;0.45;;
23086;SDS011;11712;51.134;4.156;2022-09-30T03:02:43;0.50;;;0.50;;
23086;SDS011;11712;51.134;4.156;2022-09-30T03:05:09;0.50;;;0.50;;
23086;SDS011;11712;51.134;4.156;2022-09-30T03:07:36;0.50;;;0.50;;
23086;SDS011;11712;51.134;4.156;2022-09-30T03:10:12;0.40;;;0.40;;
23086;SDS011;11712;51.134;4.156;2022-09-30T03:23:34;0.60;;;0.60;;
23086;SDS011;11712;51.134;4.156;2022-09-30T03:28:49;0.50;;;0.50;;
23086;SDS011;11712;51.134;4.156;2022-09-30T03:31:23;0.50;;;0.50;;
23086;SDS011;11712;51.134;4.156;2022-09-30T03:34:00;0.50;;;0.50;;
23086;SDS011;11712;51.134;4.156;2022-09-30T03:42:11;0.50;;;0.50;;
23086;SDS011;11712;51.134;4.156;2022-09-30T03:45:29;0.50;;;0.50;;
23086;SDS011;11712;51.134;4.156;2022-09-30T03:47:48;0.40;;;0.40;;
23086;SDS011;11712;51.134;4.156;2022-09-30T03:50:18;0.45;;;0.45;;
23086;SDS011;11712;51.134;4.156;2022-09-30T03:52:47;0.50;;;0.50;;
23086;SDS011;11712;51.134;4.156;2022-09-30T03:55:14;0.50;;;0.50;;
23086;SDS011;11712;51.134;4.156;2022-09-30T03:57:41;0.50;;;0.50;;
23086;SDS011;11712;51.134;4.156;2022-09-30T04:00:09;0.50;;;0.50;;
23086;SDS011;11712;51.134;4.156;2022-09-30T04:02:36;0.52;;;0.52;;
23086;SDS011;11712;51.134;4.156;2022-09-30T04:05:02;0.50;;;0.50;;
23086;SDS011;11712;51.134;4.156;2022-09-30T04:07:29;0.50;;;0.50;;
23086;SDS011;11712;51.134;4.156;2022-09-30T04:09:55;0.50;;;0.50;;
23086;SDS011;11712;51.134;4.156;2022-09-30T04:12:20;0.50;;;0.50;;
23086;SDS011;11712;51.134;4.156;2022-09-30T04:14:46;0.50;;;0.50;;
23086;SDS011;11712;51.134;4.156;2022-09-30T04:17:58;0.50;;;0.50;;
23086;SDS011;11712;51.134;4.156;2022-09-30T04:20:24;0.50;;;0.50;;
23086;SDS011;11712;51.134;4.156;2022-09-30T04:22:50;0.50;;;0.50;;
23086;SDS011;11712;51.134;4.156;2022-09-30T04:25:15;0.50;;;0.50;;
23086;SDS011;11712;51.134;4.156;2022-09-30T04:27:41;0.50;;;0.50;;
23086;SDS011;11712;51.134;4.156;2022-09-30T04:30:07;0.50;;;0.50;;
23086;SDS011;11712;51.134;4.156;2022-09-30T04:32:33;0.50;;;0.50;;
23086;SDS011;11712;51.134;4.156;2022-09-30T04:34:58;0.50;;;0.50;;
23086;SDS011;11712;51.134;4.156;2022-09-30T04:37:46;0.50;;;0.50;;
23086;SDS011;11712;51.134;4.156;2022-09-30T04:40:13;0.50;;;0.50;;
23086;SDS011;11712;51.134;4.156;2022-09-30T04:42:40;0.50;;;0.50;;
23086;SDS011;11712;51.134;4.156;2022-09-30T04:45:10;0.50;;;0.50;;
23086;SDS011;11712;51.134;4.156;2022-09-30T04:47:37;0.50;;;0.50;;
23086;SDS011;11712;51.134;4.156;2022-09-30T04:50:07;0.50;;;0.50;;
23086;SDS011;11712;51.134;4.156;2022-09-30T04:52:32;0.50;;;0.50;;
23086;SDS011;11712;51.134;4.156;2022-09-30T04:54:58;0.50;;;0.50;;
23086;SDS011;11712;51.134;4.156;2022-09-30T04:57:24;0.50;;;0.50;;
23086;SDS011;11712;51.134;4.156;2022-09-30T04:59:51;0.50;;;0.50;;
23086;SDS011;11712;51.134;4.156;2022-09-30T05:02:17;0.50;;;0.50;;
23086;SDS011;11712;51.134;4.156;2022-09-30T05:04:43;0.50;;;0.50;;
23086;SDS011;11712;51.134;4.156;2022-09-30T05:07:09;0.57;;;0.57;;
23086;SDS011;11712;51.134;4.156;2022-09-30T05:09:34;0.50;;;0.50;;
23086;SDS011;11712;51.134;4.156;2022-09-30T05:12:00;0.50;;;0.50;;
23086;SDS011;11712;51.134;4.156;2022-09-30T05:14:27;0.50;;;0.50;;
23086;SDS011;11712;51.134;4.156;2022-09-30T05:16:54;0.50;;;0.50;;
23086;SDS011;11712;51.134;4.156;2022-09-30T05:19:19;0.50;;;0.50;;
23086;SDS011;11712;51.134;4.156;2022-09-30T05:21:45;0.50;;;0.50;;
23086;SDS011;11712;51.134;4.156;2022-09-30T05:24:11;0.50;;;0.50;;
23086;SDS011;11712;51.134;4.156;2022-09-30T05:26:37;0.50;;;0.50;;
23086;SDS011;11712;51.134;4.156;2022-09-30T05:29:04;0.50;;;0.50;;
23086;SDS011;11712;51.134;4.156;2022-09-30T05:33:37;0.43;;;0.43;;
23086;SDS011;11712;51.134;4.156;2022-09-30T05:36:06;0.50;;;0.50;;
23086;SDS011;11712;51.134;4.156;2022-09-30T05:38:33;0.50;;;0.50;;
23086;SDS011;11712;51.134;4.156;2022-09-30T05:41:09;0.50;;;0.50;;
23086;SDS011;11712;51.134;4.156;2022-09-30T05:43:39;0.50;;;0.50;;
23086;SDS011;11712;51.134;4.156;2022-09-30T05:46:06;0.50;;;0.50;;
23086;SDS011;11712;51.134;4.156;2022-09-30T05:48:32;0.50;;;0.50;;
23086;SDS011;11712;51.134;4.156;2022-09-30T05:50:58;0.40;;;0.40;;
23086;SDS011;11712;51.134;4.156;2022-09-30T05:53:25;0.50;;;0.50;;
23086;SDS011;11712;51.134;4.156;2022-09-30T05:55:51;0.50;;;0.50;;
23086;SDS011;11712;51.134;4.156;2022-09-30T05:58:18;0.50;;;0.50;;
23086;SDS011;11712;51.134;4.156;2022-09-30T06:00:44;0.50;;;0.50;;
23086;SDS011;11712;51.134;4.156;2022-09-30T06:03:11;0.50;;;0.50;;
23086;SDS011;11712;51.134;4.156;2022-09-30T06:05:38;0.50;;;0.50;;
23086;SDS011;11712;51.134;4.156;2022-09-30T06:08:04;0.50;;;0.50;;
23086;SDS011;11712;51.134;4.156;2022-09-30T06:10:31;0.50;;;0.50;;
23086;SDS011;11712;51.134;4.156;2022-09-30T06:12:58;0.50;;;0.50;;
23086;SDS011;11712;51.134;4.156;2022-09-30T06:15:26;0.50;;;0.50;;
23086;SDS011;11712;51.134;4.156;2022-09-30T06:17:52;0.50;;;0.50;;
23086;SDS011;11712;51.134;4.156;2022-09-30T06:20:18;0.50;;;0.50;;
23086;SDS011;11712;51.134;4.156;2022-09-30T06:22:44;0.50;;;0.50;;
23086;SDS011;11712;51.134;4.156;2022-09-30T06:25:10;0.50;;;0.50;;
23086;SDS011;11712;51.134;4.156;2022-09-30T06:27:36;0.43;;;0.43;;
23086;SDS011;11712;51.134;4.156;2022-09-30T06:30:05;0.50;;;0.50;;
23086;SDS011;11712;51.134;4.156;2022-09-30T06:33:32;0.50;;;0.50;;
23086;SDS011;11712;51.134;4.156;2022-09-30T06:35:58;0.50;;;0.50;;
23086;SDS011;11712;51.134;4.156;2022-09-30T06:38:28;0.50;;;0.50;;
23086;SDS011;11712;51.134;4.156;2022-09-30T06:40:57;0.40;;;0.40;;
23086;SDS011;11712;51.134;4.156;2022-09-30T06:43:23;0.40;;;0.40;;
23086;SDS011;11712;51.134;4.156;2022-09-30T06:45:54;0.43;;;0.43;;
23086;SDS011;11712;51.134;4.156;2022-09-30T06:48:25;0.50;;;0.50;;
23086;SDS011;11712;51.134;4.156;2022-09-30T06:50:56;0.40;;;0.40;;
23086;SDS011;11712;51.134;4.156;2022-09-30T06:53:22;0.50;;;0.50;;
23086;SDS011;11712;51.134;4.156;2022-09-30T06:55:47;0.50;;;0.50;;
23086;SDS011;11712;51.134;4.156;2022-09-30T06:58:21;0.50;;;0.50;;
23086;SDS011;11712;51.134;4.156;2022-09-30T07:00:58;0.40;;;0.40;;
23086;SDS011;11712;51.134;4.156;2022-09-30T07:03:26;0.50;;;0.50;;
23086;SDS011;11712;51.134;4.156;2022-09-30T07:05:54;0.50;;;0.50;;
23086;SDS011;11712;51.134;4.156;2022-09-30T07:08:24;0.50;;;0.50;;
23086;SDS011;11712;51.134;4.156;2022-09-30T07:10:56;0.50;;;0.50;;
23086;SDS011;11712;51.134;4.156;2022-09-30T07:13:30;0.45;;;0.45;;
23086;SDS011;11712;51.134;4.156;2022-09-30T07:15:57;0.40;;;0.40;;
23086;SDS011;11712;51.134;4.156;2022-09-30T07:18:23;0.40;;;0.40;;
23086;SDS011;11712;51.134;4.156;2022-09-30T07:20:52;0.40;;;0.40;;
23086;SDS011;11712;51.134;4.156;2022-09-30T07:23:19;0.40;;;0.40;;
23086;SDS011;11712;51.134;4.156;2022-09-30T07:25:58;0.50;;;0.50;;
23086;SDS011;11712;51.134;4.156;2022-09-30T07:28:27;0.50;;;0.50;;
23086;SDS011;11712;51.134;4.156;2022-09-30T07:30:56;0.43;;;0.43;;
23086;SDS011;11712;51.134;4.156;2022-09-30T07:33:24;0.50;;;0.50;;
23086;SDS011;11712;51.134;4.156;2022-09-30T07:35:56;0.50;;;0.50;;
23086;SDS011;11712;51.134;4.156;2022-09-30T07:38:24;0.50;;;0.50;;
23086;SDS011;11712;51.134;4.156;2022-09-30T07:40:54;0.50;;;0.50;;
23086;SDS011;11712;51.134;4.156;2022-09-30T07:43:29;0.50;;;0.50;;
23086;SDS011;11712;51.134;4.156;2022-09-30T07:46:12;0.50;;;0.50;;
23086;SDS011;11712;51.134;4.156;2022-09-30T07:48:44;0.40;;;0.40;;
23086;SDS011;11712;51.134;4.156;2022-09-30T07:51:19;0.50;;;0.50;;
23086;SDS011;11712;51.134;4.156;2022-09-30T07:53:51;0.40;;;0.40;;
23086;SDS011;11712;51.134;4.156;2022-09-30T07:56:19;0.50;;;0.50;;
23086;SDS011;11712;51.134;4.156;2022-09-30T07:58:45;0.50;;;0.50;;
23086;SDS011;11712;51.134;4.156;2022-09-30T08:01:11;0.40;;;0.40;;
23086;SDS011;11712;51.134;4.156;2022-09-30T08:03:39;0.50;;;0.50;;
23086;SDS011;11712;51.134;4.156;2022-09-30T08:06:15;0.40;;;0.40;;
23086;SDS011;11712;51.134;4.156;2022-09-30T08:08:43;0.50;;;0.50;;
23086;SDS011;11712;51.134;4.156;2022-09-30T08:11:10;0.50;;;0.50;;
23086;SDS011;11712;51.134;4.156;2022-09-30T08:13:38;0.50;;;0.50;;
23086;SDS011;11712;51.134;4.156;2022-09-30T08:16:04;0.50;;;0.50;;
23086;SDS011;11712;51.134;4.156;2022-09-30T08:18:30;0.40;;;0.40;;
23086;SDS011;11712;51.134;4.156;2022-09-30T08:20:56;0.50;;;0.50;;
23086;SDS011;11712;51.134;4.156;2022-09-30T08:23:27;0.40;;;0.40;;
23086;SDS011;11712;51.134;4.156;2022-09-30T08:25:59;0.40;;;0.40;;
23086;SDS011;11712;51.134;4.156;2022-09-30T08:28:28;0.40;;;0.40;;
23086;SDS011;11712;51.134;4.156;2022-09-30T08:31:01;0.40;;;0.40;;
23086;SDS011;11712;51.134;4.156;2022-09-30T08:33:46;0.40;;;0.40;;
23086;SDS011;11712;51.134;4.156;2022-09-30T08:38:39;0.50;;;0.50;;
23086;SDS011;11712;51.134;4.156;2022-09-30T08:51:57;0.40;;;0.40;;
23086;SDS011;11712;51.134;4.156;2022-09-30T08:54:29;0.40;;;0.40;;
23086;SDS011;11712;51.134;4.156;2022-09-30T08:59:28;0.40;;;0.40;;
23086;SDS011;11712;51.134;4.156;2022-09-30T09:02:01;0.47;;;0.47;;
23086;SDS011;11712;51.134;4.156;2022-09-30T09:04:29;0.40;;;0.40;;
23086;SDS011;11712;51.134;4.156;2022-09-30T09:07:07;0.40;;;0.40;;
23086;SDS011;11712;51.134;4.156;2022-09-30T09:23:53;0.40;;;0.40;;
23086;SDS011;11712;51.134;4.156;2022-09-30T09:26:21;0.40;;;0.40;;
23086;SDS011;11712;51.134;4.156;2022-09-30T09:29:05;0.40;;;0.40;;
23086;SDS011;11712;51.134;4.156;2022-09-30T09:33:31;0.50;;;0.50;;
23086;SDS011;11712;51.134;4.156;2022-09-30T09:51:38;0.40;;;0.40;;
23086;SDS011;11712;51.134;4.156;2022-09-30T09:54:08;0.40;;;0.40;;
23086;SDS011;11712;51.134;4.156;2022-09-30T09:56:37;0.40;;;0.40;;
23086;SDS011;11712;51.134;4.156;2022-09-30T09:59:06;0.40;;;0.40;;
23086;SDS011;11712;51.134;4.156;2022-09-30T10:01:39;0.47;;;0.47;;
23086;SDS011;11712;51.134;4.156;2022-09-30T10:06:52;0.40;;;0.40;;
23086;SDS011;11712;51.134;4.156;2022-09-30T10:09:32;0.40;;;0.40;;
23086;SDS011;11712;51.134;4.156;2022-09-30T10:14:34;0.40;;;0.40;;
23086;SDS011;11712;51.134;4.156;2022-09-30T10:17:19;0.40;;;0.40;;
23086;SDS011;11712;51.134;4.156;2022-09-30T10:19:49;0.40;;;0.40;;
23086;SDS011;11712;51.134;4.156;2022-09-30T10:22:31;0.40;;;0.40;;
23086;SDS011;11712;51.134;4.156;2022-09-30T10:30:38;0.40;;;0.40;;
23086;SDS011;11712;51.134;4.156;2022-09-30T10:38:27;0.40;;;0.40;;
23086;SDS011;11712;51.134;4.156;2022-09-30T10:40:56;0.40;;;0.40;;
23086;SDS011;11712;51.134;4.156;2022-09-30T10:43:26;0.40;;;0.40;;
23086;SDS011;11712;51.134;4.156;2022-09-30T10:46:06;0.40;;;0.40;;
23086;SDS011;11712;51.134;4.156;2022-09-30T10:48:34;0.40;;;0.40;;
23086;SDS011;11712;51.134;4.156;2022-09-30T10:51:01;0.35;;;0.35;;
23086;SDS011;11712;51.134;4.156;2022-09-30T10:53:33;0.40;;;0.40;;
23086;SDS011;11712;51.134;4.156;2022-09-30T10:56:00;0.40;;;0.40;;
23086;SDS011;11712;51.134;4.156;2022-09-30T11:01:15;0.40;;;0.40;;
23086;SDS011;11712;51.134;4.156;2022-09-30T11:06:39;0.40;;;0.40;;
23086;SDS011;11712;51.134;4.156;2022-09-30T11:11:43;0.40;;;0.40;;
23086;SDS011;11712;51.134;4.156;2022-09-30T11:14:59;0.40;;;0.40;;
23086;SDS011;11712;51.134;4.156;2022-09-30T11:22:51;0.40;;;0.40;;
23086;SDS011;11712;51.134;4.156;2022-09-30T11:25:42;0.40;;;0.40;;
23086;SDS011;11712;51.134;4.156;2022-09-30T11:31:00;0.40;;;0.40;;
23086;SDS011;11712;51.134;4.156;2022-09-30T11:36:32;0.40;;;0.40;;
23086;SDS011;11712;51.134;4.156;2022-09-30T11:39:05;0.40;;;0.40;;
23086;SDS011;11712;51.134;4.156;2022-09-30T11:41:58;0.40;;;0.40;;
23086;SDS011;11712;51.134;4.156;2022-09-30T11:44:46;0.40;;;0.40;;
23086;SDS011;11712;51.134;4.156;2022-09-30T11:55:48;0.40;;;0.40;;
23086;SDS011;11712;51.134;4.156;2022-09-30T11:58:18;0.40;;;0.40;;
23086;SDS011;11712;51.134;4.156;2022-09-30T12:00:53;0.47;;;0.47;;
23086;SDS011;11712;51.134;4.156;2022-09-30T12:03:37;0.40;;;0.40;;
23086;SDS011;11712;51.134;4.156;2022-09-30T12:06:13;0.35;;;0.35;;
23086;SDS011;11712;51.134;4.156;2022-09-30T12:08:47;0.40;;;0.40;;
23086;SDS011;11712;51.134;4.156;2022-09-30T12:11:35;0.40;;;0.40;;
23086;SDS011;11712;51.134;4.156;2022-09-30T12:14:28;0.40;;;0.40;;
23086;SDS011;11712;51.134;4.156;2022-09-30T12:16:51;0.40;;;0.40;;
23086;SDS011;11712;51.134;4.156;2022-09-30T12:19:42;0.40;;;0.40;;
23086;SDS011;11712;51.134;4.156;2022-09-30T12:24:57;0.40;;;0.40;;
23086;SDS011;11712;51.134;4.156;2022-09-30T12:27:39;0.40;;;0.40;;
23086;SDS011;11712;51.134;4.156;2022-09-30T12:30:19;0.40;;;0.40;;
23086;SDS011;11712;51.134;4.156;2022-09-30T12:50:11;0.40;;;0.40;;
23086;SDS011;11712;51.134;4.156;2022-09-30T12:52:40;0.40;;;0.40;;
23086;SDS011;11712;51.134;4.156;2022-09-30T12:55:29;0.40;;;0.40;;
23086;SDS011;11712;51.134;4.156;2022-09-30T12:58:02;0.40;;;0.40;;
23086;SDS011;11712;51.134;4.156;2022-09-30T13:00:30;0.40;;;0.40;;
23086;SDS011;11712;51.134;4.156;2022-09-30T13:03:05;0.40;;;0.40;;
23086;SDS011;11712;51.134;4.156;2022-09-30T13:13:15;0.40;;;0.40;;
23086;SDS011;11712;51.134;4.156;2022-09-30T13:15:51;0.40;;;0.40;;
23086;SDS011;11712;51.134;4.156;2022-09-30T13:28:48;0.40;;;0.40;;
23086;SDS011;11712;51.134;4.156;2022-09-30T13:31:21;0.30;;;0.30;;
23086;SDS011;11712;51.134;4.156;2022-09-30T13:39:16;0.30;;;0.30;;
23086;SDS011;11712;51.134;4.156;2022-09-30T13:41:42;0.30;;;0.30;;
23086;SDS011;11712;51.134;4.156;2022-09-30T13:44:15;0.30;;;0.30;;
23086;SDS011;11712;51.134;4.156;2022-09-30T13:46:46;0.30;;;0.30;;
23086;SDS011;11712;51.134;4.156;2022-09-30T13:49:16;0.30;;;0.30;;
23086;SDS011;11712;51.134;4.156;2022-09-30T13:51:46;0.40;;;0.40;;
23086;SDS011;11712;51.134;4.156;2022-09-30T14:07:39;0.40;;;0.40;;
23086;SDS011;11712;51.134;4.156;2022-09-30T14:10:51;0.40;;;0.40;;
23086;SDS011;11712;51.134;4.156;2022-09-30T14:24:15;0.40;;;0.40;;
23086;SDS011;11712;51.134;4.156;2022-09-30T14:29:41;0.40;;;0.40;;
23086;SDS011;11712;51.134;4.156;2022-09-30T14:32:11;0.40;;;0.40;;
23086;SDS011;11712;51.134;4.156;2022-09-30T14:34:45;0.40;;;0.40;;
23086;SDS011;11712;51.134;4.156;2022-09-30T14:37:21;0.40;;;0.40;;
23086;SDS011;11712;51.134;4.156;2022-09-30T14:39:53;0.40;;;0.40;;
23086;SDS011;11712;51.134;4.156;2022-09-30T14:42:29;0.40;;;0.40;;
23086;SDS011;11712;51.134;4.156;2022-09-30T14:44:59;0.40;;;0.40;;
23086;SDS011;11712;51.134;4.156;2022-09-30T14:47:29;0.40;;;0.40;;
23086;SDS011;11712;51.134;4.156;2022-09-30T14:50:08;0.40;;;0.40;;
23086;SDS011;11712;51.134;4.156;2022-09-30T14:53:00;0.40;;;0.40;;
23086;SDS011;11712;51.134;4.156;2022-09-30T14:57:56;0.40;;;0.40;;
23086;SDS011;11712;51.134;4.156;2022-09-30T15:00:54;0.30;;;0.30;;
23086;SDS011;11712;51.134;4.156;2022-09-30T15:03:29;0.40;;;0.40;;
23086;SDS011;11712;51.134;4.156;2022-09-30T15:05:56;0.40;;;0.40;;
23086;SDS011;11712;51.134;4.156;2022-09-30T15:08:22;0.32;;;0.32;;
23086;SDS011;11712;51.134;4.156;2022-09-30T15:10:49;0.40;;;0.40;;
23086;SDS011;11712;51.134;4.156;2022-09-30T15:13:17;0.40;;;0.40;;
23086;SDS011;11712;51.134;4.156;2022-09-30T15:15:56;0.40;;;0.40;;
23086;SDS011;11712;51.134;4.156;2022-09-30T15:21:09;0.40;;;0.40;;
23086;SDS011;11712;51.134;4.156;2022-09-30T15:23:39;0.40;;;0.40;;
23086;SDS011;11712;51.134;4.156;2022-09-30T15:26:09;0.40;;;0.40;;
23086;SDS011;11712;51.134;4.156;2022-09-30T15:28:36;0.40;;;0.40;;
23086;SDS011;11712;51.134;4.156;2022-09-30T15:31:02;0.40;;;0.40;;
23086;SDS011;11712;51.134;4.156;2022-09-30T15:33:29;0.40;;;0.40;;
23086;SDS011;11712;51.134;4.156;2022-09-30T15:36:04;0.40;;;0.40;;
23086;SDS011;11712;51.134;4.156;2022-09-30T15:38:32;0.50;;;0.50;;
23086;SDS011;11712;51.134;4.156;2022-09-30T15:41:02;0.40;;;0.40;;
23086;SDS011;11712;51.134;4.156;2022-09-30T15:43:35;0.40;;;0.40;;
23086;SDS011;11712;51.134;4.156;2022-09-30T15:46:17;0.40;;;0.40;;
23086;SDS011;11712;51.134;4.156;2022-09-30T15:48:43;0.40;;;0.40;;
23086;SDS011;11712;51.134;4.156;2022-09-30T15:51:26;0.40;;;0.40;;
23086;SDS011;11712;51.134;4.156;2022-09-30T15:53:55;0.40;;;0.40;;
23086;SDS011;11712;51.134;4.156;2022-09-30T15:58:58;0.40;;;0.40;;
23086;SDS011;11712;51.134;4.156;2022-09-30T16:01:42;0.40;;;0.40;;
23086;SDS011;11712;51.134;4.156;2022-09-30T16:06:47;0.40;;;0.40;;
23086;SDS011;11712;51.134;4.156;2022-09-30T16:11:43;0.40;;;0.40;;
23086;SDS011;11712;51.134;4.156;2022-09-30T16:14:23;0.40;;;0.40;;
23086;SDS011;11712;51.134;4.156;2022-09-30T16:16:58;0.40;;;0.40;;
23086;SDS011;11712;51.134;4.156;2022-09-30T16:19:27;0.40;;;0.40;;
23086;SDS011;11712;51.134;4.156;2022-09-30T16:21:55;0.40;;;0.40;;
23086;SDS011;11712;51.134;4.156;2022-09-30T16:26:47;0.40;;;0.40;;
23086;SDS011;11712;51.134;4.156;2022-09-30T16:29:15;0.40;;;0.40;;
23086;SDS011;11712;51.134;4.156;2022-09-30T16:31:41;0.40;;;0.40;;
23086;SDS011;11712;51.134;4.156;2022-09-30T16:34:10;0.40;;;0.40;;
23086;SDS011;11712;51.134;4.156;2022-09-30T16:36:42;0.40;;;0.40;;
23086;SDS011;11712;51.134;4.156;2022-09-30T16:39:09;0.40;;;0.40;;
23086;SDS011;11712;51.134;4.156;2022-09-30T16:41:38;0.40;;;0.40;;
23086;SDS011;11712;51.134;4.156;2022-09-30T16:44:05;0.40;;;0.40;;
23086;SDS011;11712;51.134;4.156;2022-09-30T16:46:31;0.40;;;0.40;;
23086;SDS011;11712;51.134;4.156;2022-09-30T16:49:16;0.40;;;0.40;;
23086;SDS011;11712;51.134;4.156;2022-09-30T16:51:43;0.40;;;0.40;;
23086;SDS011;11712;51.134;4.156;2022-09-30T16:54:09;0.40;;;0.40;;
23086;SDS011;11712;51.134;4.156;2022-09-30T16:56:35;0.40;;;0.40;;
23086;SDS011;11712;51.134;4.156;2022-09-30T16:59:01;0.40;;;0.40;;
23086;SDS011;11712;51.134;4.156;2022-09-30T17:01:26;0.30;;;0.30;;
23086;SDS011;11712;51.134;4.156;2022-09-30T17:03:52;0.40;;;0.40;;
23086;SDS011;11712;51.134;4.156;2022-09-30T17:06:20;0.40;;;0.40;;
23086;SDS011;11712;51.134;4.156;2022-09-30T17:08:51;0.50;;;0.50;;
23086;SDS011;11712;51.134;4.156;2022-09-30T17:11:17;0.50;;;0.50;;
23086;SDS011;11712;51.134;4.156;2022-09-30T17:13:44;0.45;;;0.45;;
23086;SDS011;11712;51.134;4.156;2022-09-30T17:16:10;0.40;;;0.40;;
23086;SDS011;11712;51.134;4.156;2022-09-30T17:18:36;0.40;;;0.40;;
23086;SDS011;11712;51.134;4.156;2022-09-30T17:21:01;0.40;;;0.40;;
23086;SDS011;11712;51.134;4.156;2022-09-30T17:23:28;0.40;;;0.40;;
23086;SDS011;11712;51.134;4.156;2022-09-30T17:25:53;0.40;;;0.40;;
23086;SDS011;11712;51.134;4.156;2022-09-30T17:28:19;0.40;;;0.40;;
23086;SDS011;11712;51.134;4.156;2022-09-30T17:30:46;0.40;;;0.40;;
23086;SDS011;11712;51.134;4.156;2022-09-30T17:33:13;0.40;;;0.40;;
23086;SDS011;11712;51.134;4.156;2022-09-30T17:35:39;0.40;;;0.40;;
23086;SDS011;11712;51.134;4.156;2022-09-30T17:38:11;0.40;;;0.40;;
23086;SDS011;11712;51.134;4.156;2022-09-30T17:40:37;0.40;;;0.40;;
23086;SDS011;11712;51.134;4.156;2022-09-30T17:43:22;0.47;;;0.47;;
23086;SDS011;11712;51.134;4.156;2022-09-30T17:45:48;0.40;;;0.40;;
23086;SDS011;11712;51.134;4.156;2022-09-30T17:48:19;0.40;;;0.40;;
23086;SDS011;11712;51.134;4.156;2022-09-30T17:50:46;0.40;;;0.40;;
23086;SDS011;11712;51.134;4.156;2022-09-30T17:53:13;0.50;;;0.50;;
23086;SDS011;11712;51.134;4.156;2022-09-30T17:55:43;0.40;;;0.40;;
23086;SDS011;11712;51.134;4.156;2022-09-30T17:58:12;0.47;;;0.47;;
23086;SDS011;11712;51.134;4.156;2022-09-30T18:00:38;0.50;;;0.50;;
23086;SDS011;11712;51.134;4.156;2022-09-30T18:03:04;0.40;;;0.40;;
23086;SDS011;11712;51.134;4.156;2022-09-30T18:05:30;0.40;;;0.40;;
23086;SDS011;11712;51.134;4.156;2022-09-30T18:07:59;0.40;;;0.40;;
23086;SDS011;11712;51.134;4.156;2022-09-30T18:10:25;0.40;;;0.40;;
23086;SDS011;11712;51.134;4.156;2022-09-30T18:12:52;0.40;;;0.40;;
23086;SDS011;11712;51.134;4.156;2022-09-30T18:15:19;0.40;;;0.40;;
23086;SDS011;11712;51.134;4.156;2022-09-30T18:17:46;0.40;;;0.40;;
23086;SDS011;11712;51.134;4.156;2022-09-30T18:20:12;0.50;;;0.50;;
23086;SDS011;11712;51.134;4.156;2022-09-30T18:22:38;0.40;;;0.40;;
23086;SDS011;11712;51.134;4.156;2022-09-30T18:25:04;0.40;;;0.40;;
23086;SDS011;11712;51.134;4.156;2022-09-30T18:27:48;0.50;;;0.50;;
23086;SDS011;11712;51.134;4.156;2022-09-30T18:30:19;0.40;;;0.40;;
23086;SDS011;11712;51.134;4.156;2022-09-30T18:32:46;0.40;;;0.40;;
23086;SDS011;11712;51.134;4.156;2022-09-30T18:35:15;0.40;;;0.40;;
23086;SDS011;11712;51.134;4.156;2022-09-30T18:37:44;0.40;;;0.40;;
23086;SDS011;11712;51.134;4.156;2022-09-30T18:40:12;0.50;;;0.50;;
23086;SDS011;11712;51.134;4.156;2022-09-30T18:42:40;0.47;;;0.47;;
23086;SDS011;11712;51.134;4.156;2022-09-30T18:45:07;0.40;;;0.40;;
23086;SDS011;11712;51.134;4.156;2022-09-30T18:47:35;0.40;;;0.40;;
23086;SDS011;11712;51.134;4.156;2022-09-30T18:50:01;0.40;;;0.40;;
23086;SDS011;11712;51.134;4.156;2022-09-30T18:52:27;0.40;;;0.40;;
23086;SDS011;11712;51.134;4.156;2022-09-30T18:54:53;0.40;;;0.40;;
23086;SDS011;11712;51.134;4.156;2022-09-30T18:57:18;0.50;;;0.50;;
23086;SDS011;11712;51.134;4.156;2022-09-30T18:59:44;0.50;;;0.50;;
23086;SDS011;11712;51.134;4.156;2022-09-30T19:02:13;0.50;;;0.50;;
23086;SDS011;11712;51.134;4.156;2022-09-30T19:04:42;0.40;;;0.40;;
23086;SDS011;11712;51.134;4.156;2022-09-30T19:07:08;0.50;;;0.50;;
23086;SDS011;11712;51.134;4.156;2022-09-30T19:09:33;0.40;;;0.40;;
23086;SDS011;11712;51.134;4.156;2022-09-30T19:11:59;0.50;;;0.50;;
23086;SDS011;11712;51.134;4.156;2022-09-30T19:14:25;0.40;;;0.40;;
23086;SDS011;11712;51.134;4.156;2022-09-30T19:16:54;0.40;;;0.40;;
23086;SDS011;11712;51.134;4.156;2022-09-30T19:19:20;0.50;;;0.50;;
23086;SDS011;11712;51.134;4.156;2022-09-30T19:21:47;0.50;;;0.50;;
23086;SDS011;11712;51.134;4.156;2022-09-30T19:24:13;0.43;;;0.43;;
23086;SDS011;11712;51.134;4.156;2022-09-30T19:26:41;0.50;;;0.50;;
23086;SDS011;11712;51.134;4.156;2022-09-30T19:29:08;0.50;;;0.50;;
23086;SDS011;11712;51.134;4.156;2022-09-30T19:31:34;0.40;;;0.40;;